MET'MAP v2.0
soon released !

Expected late october,
this new version will be
more efficient, smarter,
and hosted on a brand new
server x3 powerfull...
...and still free !


Not compatible ?
Try the mobile version !

LOG IN : | Subscribe | Disclaimer | Who is Orbifly ? |
ICAO code :

TAF - DAOV Ghriss Airport - 11 Nov 2019 20:58 UTC - Data Source NOAA   


- Airport Elevation : 1686 ft
- IATA code : MUW
- No reported NOTAMs.


DAOV - Ghriss Airport

Latest METAR recorded : 2015/08/11 08:00 DAOV 110800Z 00000KT 8000 SCT033 BKN100 29/16 Q1016
TAF TAF DAOV
Valid from the 11 at 18:00 until the 12 at 03:00 UTC


111700Z 1118/1203 26005KT 9999 SCT026
BECMG 1122/1124 VRB02KT 6000 BKN020
PROB40
TEMPO 1201/1203 8000 RA SCT010 SCT026

Source NOAA


MET'MAP, your aeronautical weather chart ! - Copyright ORBIFLY December 2007

Programming & Development : Alexandra Zaïnal
Co-Developer : Marc-Olivier Méhu
Technical & hardware support : Manuel Goepfert
Concept & Financing : Baudouin d'Aumeries